This is the latest recevied weather packets stored in our database for station/object SP4FDH-13. If no packets are shown the sender has not sent any weather packets the latest 10 day(s).
| Time | Temp. | Humidity | Pressure | Rain* | Wind** | Luminosity | Snow |
|---|---|---|---|---|---|---|---|
| 1777214442 | 9.44° C | 44% | 1016 hPa | - | - | - | - |
| 1777213866 | 9.44° C | 45% | 1015.8 hPa | - | - | - | - |
| 1777213291 | 9.44° C | 45% | 1015.5 hPa | - | - | - | - |
| 1777212715 | 10° C | 43% | 1015.2 hPa | - | - | - | - |
| 1777212139 | 10° C | 47% | 1015.3 hPa | - | - | - | - |
| 1777211564 | 10° C | 46% | 1015.2 hPa | - | - | - | - |
| 1777210989 | 10.56° C | 45% | 1015 hPa | - | - | - | - |
| 1777210415 | 10.56° C | 46% | 1014.9 hPa | - | - | - | - |
| 1777209839 | 11.11° C | 48% | 1014.8 hPa | - | - | - | - |
| 1777209264 | 11.11° C | 47% | 1014.8 hPa | - | - | - | - |
| 1777208687 | 11.67° C | 45% | 1014.3 hPa | - | - | - | - |
| 1777208109 | 10.56° C | 51% | 1014.4 hPa | - | - | - | - |
| 1777207535 | 10° C | 62% | 1014.8 hPa | - | - | - | - |
| 1777206959 | 10.56° C | 64% | 1014.9 hPa | - | - | - | - |
| 1777206382 | 10° C | 69% | 1014.8 hPa | - | - | - | - |
| 1777205804 | 8.33° C | 89% | 1015 hPa | - | - | - | - |
| 1777205227 | 8.33° C | 91% | 1015.2 hPa | - | - | - | - |
| 1777204652 | 8.89° C | 83% | 1015.1 hPa | - | - | - | - |
| 1777204077 | 8.89° C | 79% | 1015.1 hPa | - | - | - | - |
| 1777203501 | 8.33° C | 71% | 1015.1 hPa | - | - | - | - |
| 1777202927 | 8.89° C | 59% | 1014.5 hPa | - | - | - | - |
| 1777202351 | 9.44° C | 68% | 1014.3 hPa | - | - | - | - |
| 1777201777 | 9.44° C | 62% | 1014.7 hPa | - | - | - | - |
| 1777201201 | 10.56° C | 51% | 1013.9 hPa | - | - | - | - |
| 1777200625 | 10° C | 43% | 1013.2 hPa | - | - | - | - |
* Rain since midnight (hover to see other rain measurements)
** Current wind speed in m/s (hover to see current wind gust speed)